Alvord, Iowa
Current Conditions -  °F | °C
As of 8:34 PM on Wednesday 22 Oct 2014 (Local Time) from KLYV Reporting Station
Haze Haze  
Wind Chill: 59°   Ceiling: 1500
Heat Index: 59°   Visibility: 5mi
Dew Point: 57°   Wind: 9mph
Humidity: 94%   Direction: 200°SSW
Pressure: 30"   Gusts: NA
Location:  43.34°N, 96.3°W
Report Text: KLYV 230134Z AUTO 20008KT 5SM BR SCT003 BKN015 OVC021 15/14 A3000 RMK AO2
Loading
Personal Weather Stations






























Interactive Weather Map
Tropical Storm Tracking
New forecast layout! Learn more

10-Day Weather Forecast

Advertisements
Track Severe Weather on mobile